sensor_id;sensor_type;location;lat;lon;timestamp;P1;durP1;ratioP1;P2;durP2;ratioP2
80637;SDS011;69991;51.760;19.528;2023-07-13T00:01:16;6.30;;;3.90;;
80637;SDS011;69991;51.760;19.528;2023-07-13T00:03:47;9.10;;;4.50;;
80637;SDS011;69991;51.760;19.528;2023-07-13T00:06:17;6.30;;;4.00;;
80637;SDS011;69991;51.760;19.528;2023-07-13T00:08:46;6.70;;;3.80;;
80637;SDS011;69991;51.760;19.528;2023-07-13T00:11:16;6.00;;;3.80;;
80637;SDS011;69991;51.760;19.528;2023-07-13T00:13:46;8.10;;;4.20;;
80637;SDS011;69991;51.760;19.528;2023-07-13T00:16:15;5.20;;;4.00;;
80637;SDS011;69991;51.760;19.528;2023-07-13T00:18:44;6.70;;;4.30;;
80637;SDS011;69991;51.760;19.528;2023-07-13T00:21:14;7.00;;;4.30;;
80637;SDS011;69991;51.760;19.528;2023-07-13T00:23:43;8.90;;;4.80;;
80637;SDS011;69991;51.760;19.528;2023-07-13T00:26:12;10.00;;;5.60;;
80637;SDS011;69991;51.760;19.528;2023-07-13T00:28:42;8.40;;;4.70;;
80637;SDS011;69991;51.760;19.528;2023-07-13T00:31:12;9.10;;;5.10;;
80637;SDS011;69991;51.760;19.528;2023-07-13T00:33:43;8.00;;;4.70;;
80637;SDS011;69991;51.760;19.528;2023-07-13T00:36:16;7.80;;;4.90;;
80637;SDS011;69991;51.760;19.528;2023-07-13T00:38:45;9.60;;;5.00;;
80637;SDS011;69991;51.760;19.528;2023-07-13T00:41:14;10.40;;;5.10;;
80637;SDS011;69991;51.760;19.528;2023-07-13T00:43:43;8.50;;;4.80;;
80637;SDS011;69991;51.760;19.528;2023-07-13T00:46:21;8.50;;;5.40;;
80637;SDS011;69991;51.760;19.528;2023-07-13T00:48:55;9.30;;;5.20;;
80637;SDS011;69991;51.760;19.528;2023-07-13T00:51:30;9.60;;;5.10;;
80637;SDS011;69991;51.760;19.528;2023-07-13T00:54:03;8.30;;;5.00;;
80637;SDS011;69991;51.760;19.528;2023-07-13T00:56:34;10.10;;;5.40;;
80637;SDS011;69991;51.760;19.528;2023-07-13T00:59:04;11.70;;;6.20;;
80637;SDS011;69991;51.760;19.528;2023-07-13T01:01:36;9.20;;;5.30;;
80637;SDS011;69991;51.760;19.528;2023-07-13T01:04:05;9.20;;;4.80;;
80637;SDS011;69991;51.760;19.528;2023-07-13T01:06:44;9.30;;;5.50;;
80637;SDS011;69991;51.760;19.528;2023-07-13T01:09:21;9.60;;;5.30;;
80637;SDS011;69991;51.760;19.528;2023-07-13T01:12:11;11.90;;;5.10;;
80637;SDS011;69991;51.760;19.528;2023-07-13T01:14:46;10.00;;;5.80;;
80637;SDS011;69991;51.760;19.528;2023-07-13T01:17:34;8.40;;;5.40;;
80637;SDS011;69991;51.760;19.528;2023-07-13T01:20:10;10.60;;;6.00;;
80637;SDS011;69991;51.760;19.528;2023-07-13T01:22:59;13.40;;;6.40;;
80637;SDS011;69991;51.760;19.528;2023-07-13T01:25:36;12.50;;;5.60;;
80637;SDS011;69991;51.760;19.528;2023-07-13T01:28:26;8.80;;;5.30;;
80637;SDS011;69991;51.760;19.528;2023-07-13T01:31:02;7.80;;;4.50;;
80637;SDS011;69991;51.760;19.528;2023-07-13T01:33:52;10.20;;;4.90;;
80637;SDS011;69991;51.760;19.528;2023-07-13T01:39:24;8.20;;;4.60;;
80637;SDS011;69991;51.760;19.528;2023-07-13T01:42:21;10.70;;;5.00;;
80637;SDS011;69991;51.760;19.528;2023-07-13T01:45:17;7.90;;;4.60;;
80637;SDS011;69991;51.760;19.528;2023-07-13T01:48:13;7.10;;;3.90;;
80637;SDS011;69991;51.760;19.528;2023-07-13T01:51:09;7.20;;;4.10;;
80637;SDS011;69991;51.760;19.528;2023-07-13T01:54:05;7.30;;;4.70;;
80637;SDS011;69991;51.760;19.528;2023-07-13T01:57:02;8.00;;;4.60;;
80637;SDS011;69991;51.760;19.528;2023-07-13T01:59:57;7.50;;;3.90;;
80637;SDS011;69991;51.760;19.528;2023-07-13T02:02:40;7.10;;;4.20;;
80637;SDS011;69991;51.760;19.528;2023-07-13T02:05:22;5.80;;;3.80;;
80637;SDS011;69991;51.760;19.528;2023-07-13T02:07:57;7.20;;;4.50;;
80637;SDS011;69991;51.760;19.528;2023-07-13T02:10:46;7.80;;;4.30;;
80637;SDS011;69991;51.760;19.528;2023-07-13T02:13:21;8.20;;;4.70;;
80637;SDS011;69991;51.760;19.528;2023-07-13T02:16:09;7.10;;;4.20;;
80637;SDS011;69991;51.760;19.528;2023-07-13T02:18:45;7.50;;;4.30;;
80637;SDS011;69991;51.760;19.528;2023-07-13T02:21:34;7.10;;;4.70;;
80637;SDS011;69991;51.760;19.528;2023-07-13T02:24:09;6.10;;;4.20;;
80637;SDS011;69991;51.760;19.528;2023-07-13T02:26:59;8.90;;;4.80;;
80637;SDS011;69991;51.760;19.528;2023-07-13T02:29:55;7.50;;;4.00;;
80637;SDS011;69991;51.760;19.528;2023-07-13T02:32:51;7.30;;;4.30;;
80637;SDS011;69991;51.760;19.528;2023-07-13T02:35:34;9.60;;;4.70;;
80637;SDS011;69991;51.760;19.528;2023-07-13T02:38:16;7.60;;;4.60;;
80637;SDS011;69991;51.760;19.528;2023-07-13T02:40:58;7.40;;;4.40;;
80637;SDS011;69991;51.760;19.528;2023-07-13T02:43:39;7.70;;;4.50;;
80637;SDS011;69991;51.760;19.528;2023-07-13T02:46:22;5.90;;;3.90;;
80637;SDS011;69991;51.760;19.528;2023-07-13T02:49:05;8.10;;;4.60;;
80637;SDS011;69991;51.760;19.528;2023-07-13T02:51:47;8.30;;;4.00;;
80637;SDS011;69991;51.760;19.528;2023-07-13T02:54:28;7.40;;;4.50;;
80637;SDS011;69991;51.760;19.528;2023-07-13T02:57:11;8.80;;;4.40;;
80637;SDS011;69991;51.760;19.528;2023-07-13T02:59:52;7.10;;;4.10;;
80637;SDS011;69991;51.760;19.528;2023-07-13T03:02:35;7.10;;;4.30;;
80637;SDS011;69991;51.760;19.528;2023-07-13T03:05:24;8.10;;;4.40;;
80637;SDS011;69991;51.760;19.528;2023-07-13T03:07:59;8.40;;;4.60;;
80637;SDS011;69991;51.760;19.528;2023-07-13T03:10:47;7.20;;;4.50;;
80637;SDS011;69991;51.760;19.528;2023-07-13T03:13:23;6.30;;;4.10;;
80637;SDS011;69991;51.760;19.528;2023-07-13T03:16:12;9.10;;;5.30;;
80637;SDS011;69991;51.760;19.528;2023-07-13T03:18:49;8.40;;;5.30;;
80637;SDS011;69991;51.760;19.528;2023-07-13T03:21:38;8.40;;;6.10;;
80637;SDS011;69991;51.760;19.528;2023-07-13T03:24:14;9.10;;;6.00;;
80637;SDS011;69991;51.760;19.528;2023-07-13T03:27:05;7.80;;;5.80;;
80637;SDS011;69991;51.760;19.528;2023-07-13T03:30:02;8.20;;;5.20;;
80637;SDS011;69991;51.760;19.528;2023-07-13T03:32:58;8.20;;;4.80;;
80637;SDS011;69991;51.760;19.528;2023-07-13T03:35:34;8.50;;;5.00;;
80637;SDS011;69991;51.760;19.528;2023-07-13T03:38:24;9.10;;;5.70;;
80637;SDS011;69991;51.760;19.528;2023-07-13T03:40:59;7.90;;;5.20;;
80637;SDS011;69991;51.760;19.528;2023-07-13T03:43:48;8.10;;;5.40;;
80637;SDS011;69991;51.760;19.528;2023-07-13T03:46:24;9.10;;;5.40;;
80637;SDS011;69991;51.760;19.528;2023-07-13T03:49:12;8.60;;;5.30;;
80637;SDS011;69991;51.760;19.528;2023-07-13T03:51:48;7.90;;;5.20;;
80637;SDS011;69991;51.760;19.528;2023-07-13T03:54:36;8.10;;;5.40;;
80637;SDS011;69991;51.760;19.528;2023-07-13T03:57:12;7.60;;;4.80;;
80637;SDS011;69991;51.760;19.528;2023-07-13T04:00:00;8.20;;;5.20;;
80637;SDS011;69991;51.760;19.528;2023-07-13T04:02:36;8.30;;;5.30;;
80637;SDS011;69991;51.760;19.528;2023-07-13T04:05:24;9.50;;;5.30;;
80637;SDS011;69991;51.760;19.528;2023-07-13T04:08:00;10.20;;;6.10;;
80637;SDS011;69991;51.760;19.528;2023-07-13T04:10:49;11.20;;;5.90;;
80637;SDS011;69991;51.760;19.528;2023-07-13T04:13:24;10.50;;;5.60;;
80637;SDS011;69991;51.760;19.528;2023-07-13T04:16:13;11.20;;;7.30;;
80637;SDS011;69991;51.760;19.528;2023-07-13T04:18:49;13.80;;;6.60;;
80637;SDS011;69991;51.760;19.528;2023-07-13T04:21:41;11.20;;;5.90;;
80637;SDS011;69991;51.760;19.528;2023-07-13T04:24:16;13.50;;;6.60;;
80637;SDS011;69991;51.760;19.528;2023-07-13T04:27:05;12.10;;;5.70;;
80637;SDS011;69991;51.760;19.528;2023-07-13T04:30:00;10.70;;;5.70;;
80637;SDS011;69991;51.760;19.528;2023-07-13T04:32:56;9.10;;;5.60;;
80637;SDS011;69991;51.760;19.528;2023-07-13T04:35:53;9.20;;;5.00;;
80637;SDS011;69991;51.760;19.528;2023-07-13T04:38:31;7.30;;;5.10;;
80637;SDS011;69991;51.760;19.528;2023-07-13T04:41:14;9.20;;;5.90;;
80637;SDS011;69991;51.760;19.528;2023-07-13T04:43:44;9.90;;;5.40;;
80637;SDS011;69991;51.760;19.528;2023-07-13T04:46:14;9.90;;;6.60;;
80637;SDS011;69991;51.760;19.528;2023-07-13T04:48:46;10.90;;;5.30;;
80637;SDS011;69991;51.760;19.528;2023-07-13T04:51:15;9.90;;;5.60;;
80637;SDS011;69991;51.760;19.528;2023-07-13T04:53:44;9.60;;;5.40;;
80637;SDS011;69991;51.760;19.528;2023-07-13T04:56:14;8.70;;;5.30;;
80637;SDS011;69991;51.760;19.528;2023-07-13T04:58:43;9.30;;;5.00;;
80637;SDS011;69991;51.760;19.528;2023-07-13T05:01:12;11.20;;;5.70;;
80637;SDS011;69991;51.760;19.528;2023-07-13T05:03:43;8.30;;;5.50;;
80637;SDS011;69991;51.760;19.528;2023-07-13T05:06:12;10.60;;;5.50;;
80637;SDS011;69991;51.760;19.528;2023-07-13T05:08:42;8.20;;;5.90;;
80637;SDS011;69991;51.760;19.528;2023-07-13T05:11:11;11.80;;;6.30;;
80637;SDS011;69991;51.760;19.528;2023-07-13T05:13:41;12.60;;;7.40;;
80637;SDS011;69991;51.760;19.528;2023-07-13T05:16:10;11.80;;;8.30;;
80637;SDS011;69991;51.760;19.528;2023-07-13T05:18:39;12.30;;;6.90;;
80637;SDS011;69991;51.760;19.528;2023-07-13T05:23:41;10.20;;;6.30;;
80637;SDS011;69991;51.760;19.528;2023-07-13T05:26:13;11.30;;;7.00;;
80637;SDS011;69991;51.760;19.528;2023-07-13T05:28:42;8.30;;;6.20;;
80637;SDS011;69991;51.760;19.528;2023-07-13T05:31:11;11.30;;;7.20;;
80637;SDS011;69991;51.760;19.528;2023-07-13T05:33:41;10.00;;;5.90;;
80637;SDS011;69991;51.760;19.528;2023-07-13T05:36:10;10.50;;;6.50;;
80637;SDS011;69991;51.760;19.528;2023-07-13T05:38:39;9.90;;;6.40;;
80637;SDS011;69991;51.760;19.528;2023-07-13T05:41:09;9.50;;;6.80;;
80637;SDS011;69991;51.760;19.528;2023-07-13T05:43:38;11.30;;;7.60;;
80637;SDS011;69991;51.760;19.528;2023-07-13T05:46:07;9.90;;;6.90;;
80637;SDS011;69991;51.760;19.528;2023-07-13T05:48:36;10.50;;;7.00;;
80637;SDS011;69991;51.760;19.528;2023-07-13T05:51:06;10.60;;;7.00;;
80637;SDS011;69991;51.760;19.528;2023-07-13T05:53:35;10.10;;;6.20;;
80637;SDS011;69991;51.760;19.528;2023-07-13T05:56:04;10.00;;;6.50;;
80637;SDS011;69991;51.760;19.528;2023-07-13T05:58:34;9.90;;;6.60;;
80637;SDS011;69991;51.760;19.528;2023-07-13T06:01:09;13.50;;;7.10;;
80637;SDS011;69991;51.760;19.528;2023-07-13T06:03:40;10.10;;;6.80;;
80637;SDS011;69991;51.760;19.528;2023-07-13T06:06:10;10.50;;;7.20;;
80637;SDS011;69991;51.760;19.528;2023-07-13T06:08:39;9.00;;;6.40;;
80637;SDS011;69991;51.760;19.528;2023-07-13T06:11:19;14.10;;;7.30;;
80637;SDS011;69991;51.760;19.528;2023-07-13T06:13:50;10.30;;;7.00;;
80637;SDS011;69991;51.760;19.528;2023-07-13T06:16:20;9.10;;;6.80;;
80637;SDS011;69991;51.760;19.528;2023-07-13T06:18:49;11.00;;;7.40;;
80637;SDS011;69991;51.760;19.528;2023-07-13T06:21:19;11.80;;;7.20;;
80637;SDS011;69991;51.760;19.528;2023-07-13T06:23:50;11.20;;;6.40;;
80637;SDS011;69991;51.760;19.528;2023-07-13T06:26:20;9.60;;;6.50;;
80637;SDS011;69991;51.760;19.528;2023-07-13T06:28:50;11.70;;;6.90;;
80637;SDS011;69991;51.760;19.528;2023-07-13T06:31:19;10.70;;;6.80;;
80637;SDS011;69991;51.760;19.528;2023-07-13T06:33:48;9.50;;;6.40;;
80637;SDS011;69991;51.760;19.528;2023-07-13T06:36:17;8.80;;;5.70;;
80637;SDS011;69991;51.760;19.528;2023-07-13T06:38:46;9.30;;;6.50;;
80637;SDS011;69991;51.760;19.528;2023-07-13T06:41:16;8.20;;;5.70;;
80637;SDS011;69991;51.760;19.528;2023-07-13T06:43:45;10.70;;;7.10;;
80637;SDS011;69991;51.760;19.528;2023-07-13T06:46:14;13.10;;;6.70;;
80637;SDS011;69991;51.760;19.528;2023-07-13T06:48:44;9.60;;;7.20;;
80637;SDS011;69991;51.760;19.528;2023-07-13T06:51:13;8.70;;;6.10;;
80637;SDS011;69991;51.760;19.528;2023-07-13T06:53:42;10.80;;;6.30;;
80637;SDS011;69991;51.760;19.528;2023-07-13T06:56:12;10.00;;;7.50;;
80637;SDS011;69991;51.760;19.528;2023-07-13T06:58:42;6.60;;;4.70;;
80637;SDS011;69991;51.760;19.528;2023-07-13T07:01:11;9.60;;;5.80;;
80637;SDS011;69991;51.760;19.528;2023-07-13T07:03:40;9.30;;;5.30;;
80637;SDS011;69991;51.760;19.528;2023-07-13T07:06:15;8.50;;;5.60;;
80637;SDS011;69991;51.760;19.528;2023-07-13T07:08:45;7.10;;;5.60;;
80637;SDS011;69991;51.760;19.528;2023-07-13T07:11:17;8.90;;;5.30;;
80637;SDS011;69991;51.760;19.528;2023-07-13T07:13:51;9.80;;;5.20;;
80637;SDS011;69991;51.760;19.528;2023-07-13T07:16:21;10.70;;;5.70;;
80637;SDS011;69991;51.760;19.528;2023-07-13T07:18:50;7.40;;;5.00;;
80637;SDS011;69991;51.760;19.528;2023-07-13T07:21:19;8.00;;;5.30;;
80637;SDS011;69991;51.760;19.528;2023-07-13T07:23:51;7.70;;;5.20;;
80637;SDS011;69991;51.760;19.528;2023-07-13T07:26:21;8.90;;;4.90;;
80637;SDS011;69991;51.760;19.528;2023-07-13T07:28:55;7.80;;;5.00;;
80637;SDS011;69991;51.760;19.528;2023-07-13T07:31:27;8.50;;;5.50;;
80637;SDS011;69991;51.760;19.528;2023-07-13T07:33:59;7.40;;;5.40;;
80637;SDS011;69991;51.760;19.528;2023-07-13T07:36:28;7.80;;;6.00;;
80637;SDS011;69991;51.760;19.528;2023-07-13T07:39:00;7.90;;;5.70;;
80637;SDS011;69991;51.760;19.528;2023-07-13T07:41:30;9.10;;;5.70;;
80637;SDS011;69991;51.760;19.528;2023-07-13T07:44:02;7.30;;;5.60;;
80637;SDS011;69991;51.760;19.528;2023-07-13T07:46:32;8.00;;;5.00;;
80637;SDS011;69991;51.760;19.528;2023-07-13T07:49:02;7.30;;;5.30;;
80637;SDS011;69991;51.760;19.528;2023-07-13T07:51:31;8.50;;;5.70;;
80637;SDS011;69991;51.760;19.528;2023-07-13T07:54:02;6.80;;;4.80;;
80637;SDS011;69991;51.760;19.528;2023-07-13T07:56:32;6.60;;;4.80;;
80637;SDS011;69991;51.760;19.528;2023-07-13T07:59:04;11.50;;;5.00;;
80637;SDS011;69991;51.760;19.528;2023-07-13T08:01:37;6.90;;;4.60;;
80637;SDS011;69991;51.760;19.528;2023-07-13T08:04:09;8.20;;;4.80;;
80637;SDS011;69991;51.760;19.528;2023-07-13T08:06:58;6.20;;;4.10;;
80637;SDS011;69991;51.760;19.528;2023-07-13T08:09:27;6.00;;;4.00;;
80637;SDS011;69991;51.760;19.528;2023-07-13T08:11:56;6.00;;;4.40;;
80637;SDS011;69991;51.760;19.528;2023-07-13T08:14:28;6.00;;;3.80;;
80637;SDS011;69991;51.760;19.528;2023-07-13T08:17:15;6.80;;;3.60;;
80637;SDS011;69991;51.760;19.528;2023-07-13T08:19:44;4.50;;;2.90;;
80637;SDS011;69991;51.760;19.528;2023-07-13T08:22:13;7.60;;;5.00;;
80637;SDS011;69991;51.760;19.528;2023-07-13T08:24:42;9.30;;;5.70;;
80637;SDS011;69991;51.760;19.528;2023-07-13T08:27:12;10.50;;;6.90;;
80637;SDS011;69991;51.760;19.528;2023-07-13T08:29:42;10.50;;;6.90;;
80637;SDS011;69991;51.760;19.528;2023-07-13T08:32:11;10.60;;;6.80;;
80637;SDS011;69991;51.760;19.528;2023-07-13T08:34:40;11.20;;;6.70;;
80637;SDS011;69991;51.760;19.528;2023-07-13T08:37:10;10.00;;;7.00;;
80637;SDS011;69991;51.760;19.528;2023-07-13T08:39:39;10.70;;;6.10;;
80637;SDS011;69991;51.760;19.528;2023-07-13T08:47:21;10.70;;;6.10;;
80637;SDS011;69991;51.760;19.528;2023-07-13T08:49:51;10.00;;;5.70;;
80637;SDS011;69991;51.760;19.528;2023-07-13T08:55:17;9.00;;;5.40;;
80637;SDS011;69991;51.760;19.528;2023-07-13T08:58:14;6.50;;;4.10;;
80637;SDS011;69991;51.760;19.528;2023-07-13T09:00:52;5.70;;;3.30;;
80637;SDS011;69991;51.760;19.528;2023-07-13T09:03:36;9.20;;;4.60;;
80637;SDS011;69991;51.760;19.528;2023-07-13T09:06:09;9.00;;;4.50;;
80637;SDS011;69991;51.760;19.528;2023-07-13T09:08:50;6.30;;;3.80;;
80637;SDS011;69991;51.760;19.528;2023-07-13T09:17:02;5.40;;;3.60;;
80637;SDS011;69991;51.760;19.528;2023-07-13T09:19:32;7.20;;;4.00;;
80637;SDS011;69991;51.760;19.528;2023-07-13T09:22:05;5.70;;;3.30;;
80637;SDS011;69991;51.760;19.528;2023-07-13T09:24:54;5.80;;;3.40;;
80637;SDS011;69991;51.760;19.528;2023-07-13T09:27:29;7.40;;;3.00;;
80637;SDS011;69991;51.760;19.528;2023-07-13T09:32:43;5.10;;;3.30;;
80637;SDS011;69991;51.760;19.528;2023-07-13T09:35:17;6.40;;;2.80;;
80637;SDS011;69991;51.760;19.528;2023-07-13T09:37:48;5.00;;;2.80;;
80637;SDS011;69991;51.760;19.528;2023-07-13T09:40:26;15.10;;;7.20;;
80637;SDS011;69991;51.760;19.528;2023-07-13T09:42:59;6.30;;;3.00;;
80637;SDS011;69991;51.760;19.528;2023-07-13T09:45:29;6.60;;;3.40;;
80637;SDS011;69991;51.760;19.528;2023-07-13T09:48:04;6.30;;;3.10;;
80637;SDS011;69991;51.760;19.528;2023-07-13T09:50:40;5.60;;;3.30;;
80637;SDS011;69991;51.760;19.528;2023-07-13T09:53:11;5.70;;;3.20;;
80637;SDS011;69991;51.760;19.528;2023-07-13T09:55:42;5.90;;;3.30;;
80637;SDS011;69991;51.760;19.528;2023-07-13T09:58:13;7.10;;;3.70;;
80637;SDS011;69991;51.760;19.528;2023-07-13T10:01:07;4.20;;;2.40;;
80637;SDS011;69991;51.760;19.528;2023-07-13T10:03:39;5.70;;;3.50;;
80637;SDS011;69991;51.760;19.528;2023-07-13T10:06:14;5.50;;;3.10;;
80637;SDS011;69991;51.760;19.528;2023-07-13T10:08:49;6.50;;;3.40;;
80637;SDS011;69991;51.760;19.528;2023-07-13T10:11:26;8.00;;;3.60;;
80637;SDS011;69991;51.760;19.528;2023-07-13T10:14:14;5.50;;;3.30;;
80637;SDS011;69991;51.760;19.528;2023-07-13T10:16:45;6.00;;;3.00;;
80637;SDS011;69991;51.760;19.528;2023-07-13T10:19:16;6.20;;;3.60;;
80637;SDS011;69991;51.760;19.528;2023-07-13T10:21:58;6.20;;;3.30;;
80637;SDS011;69991;51.760;19.528;2023-07-13T10:24:33;7.70;;;3.40;;
80637;SDS011;69991;51.760;19.528;2023-07-13T10:29:46;5.50;;;3.80;;
80637;SDS011;69991;51.760;19.528;2023-07-13T10:32:24;6.00;;;3.20;;
80637;SDS011;69991;51.760;19.528;2023-07-13T10:34:54;6.80;;;3.90;;
80637;SDS011;69991;51.760;19.528;2023-07-13T10:37:26;7.60;;;4.00;;
80637;SDS011;69991;51.760;19.528;2023-07-13T10:39:57;6.90;;;4.20;;
80637;SDS011;69991;51.760;19.528;2023-07-13T10:42:32;7.60;;;3.90;;
80637;SDS011;69991;51.760;19.528;2023-07-13T10:45:13;7.70;;;3.50;;
80637;SDS011;69991;51.760;19.528;2023-07-13T10:52:50;6.60;;;3.50;;
80637;SDS011;69991;51.760;19.528;2023-07-13T10:55:36;5.80;;;3.50;;
80637;SDS011;69991;51.760;19.528;2023-07-13T11:03:55;7.30;;;4.30;;
80637;SDS011;69991;51.760;19.528;2023-07-13T11:06:39;6.80;;;4.30;;
80637;SDS011;69991;51.760;19.528;2023-07-13T11:09:31;7.50;;;4.50;;
80637;SDS011;69991;51.760;19.528;2023-07-13T11:12:06;7.80;;;3.70;;
80637;SDS011;69991;51.760;19.528;2023-07-13T11:15:01;6.90;;;4.30;;
80637;SDS011;69991;51.760;19.528;2023-07-13T11:17:37;12.00;;;5.00;;
80637;SDS011;69991;51.760;19.528;2023-07-13T11:20:22;12.60;;;6.60;;
80637;SDS011;69991;51.760;19.528;2023-07-13T11:23:16;14.10;;;7.20;;
80637;SDS011;69991;51.760;19.528;2023-07-13T11:25:47;10.50;;;7.20;;
80637;SDS011;69991;51.760;19.528;2023-07-13T11:28:20;13.70;;;8.80;;
80637;SDS011;69991;51.760;19.528;2023-07-13T11:33:24;13.10;;;7.80;;
80637;SDS011;69991;51.760;19.528;2023-07-13T11:36:15;10.30;;;7.10;;
80637;SDS011;69991;51.760;19.528;2023-07-13T11:41:28;9.80;;;6.20;;
80637;SDS011;69991;51.760;19.528;2023-07-13T11:44:11;7.20;;;5.20;;
80637;SDS011;69991;51.760;19.528;2023-07-13T11:46:48;10.00;;;6.00;;
80637;SDS011;69991;51.760;19.528;2023-07-13T11:49:24;9.10;;;6.80;;
80637;SDS011;69991;51.760;19.528;2023-07-13T11:51:56;9.60;;;5.90;;
80637;SDS011;69991;51.760;19.528;2023-07-13T11:54:30;9.20;;;6.00;;
80637;SDS011;69991;51.760;19.528;2023-07-13T11:57:03;9.00;;;5.10;;
80637;SDS011;69991;51.760;19.528;2023-07-13T11:59:55;7.00;;;4.40;;
80637;SDS011;69991;51.760;19.528;2023-07-13T12:02:32;8.70;;;4.10;;
80637;SDS011;69991;51.760;19.528;2023-07-13T12:05:03;6.70;;;4.30;;
80637;SDS011;69991;51.760;19.528;2023-07-13T12:07:33;7.90;;;4.20;;
80637;SDS011;69991;51.760;19.528;2023-07-13T12:12:46;7.00;;;4.40;;
80637;SDS011;69991;51.760;19.528;2023-07-13T12:15:16;6.50;;;3.60;;
80637;SDS011;69991;51.760;19.528;2023-07-13T12:17:46;6.70;;;3.40;;
80637;SDS011;69991;51.760;19.528;2023-07-13T12:22:54;5.60;;;3.30;;
80637;SDS011;69991;51.760;19.528;2023-07-13T12:25:23;7.70;;;3.90;;
80637;SDS011;69991;51.760;19.528;2023-07-13T12:27:54;6.10;;;3.80;;
80637;SDS011;69991;51.760;19.528;2023-07-13T12:30:27;5.50;;;3.40;;
80637;SDS011;69991;51.760;19.528;2023-07-13T12:33:10;7.40;;;4.00;;
80637;SDS011;69991;51.760;19.528;2023-07-13T12:35:42;6.70;;;3.50;;
80637;SDS011;69991;51.760;19.528;2023-07-13T12:38:15;6.10;;;3.50;;
80637;SDS011;69991;51.760;19.528;2023-07-13T12:40:45;7.30;;;3.60;;
80637;SDS011;69991;51.760;19.528;2023-07-13T12:43:19;7.40;;;3.50;;
80637;SDS011;69991;51.760;19.528;2023-07-13T12:46:01;6.70;;;3.10;;
80637;SDS011;69991;51.760;19.528;2023-07-13T12:48:38;6.70;;;3.60;;
80637;SDS011;69991;51.760;19.528;2023-07-13T12:51:20;9.00;;;3.40;;
80637;SDS011;69991;51.760;19.528;2023-07-13T12:53:57;5.80;;;3.50;;
80637;SDS011;69991;51.760;19.528;2023-07-13T12:56:28;6.10;;;3.30;;
80637;SDS011;69991;51.760;19.528;2023-07-13T12:59:01;4.60;;;3.00;;
80637;SDS011;69991;51.760;19.528;2023-07-13T13:01:33;4.90;;;3.00;;
80637;SDS011;69991;51.760;19.528;2023-07-13T13:04:03;5.70;;;2.70;;
80637;SDS011;69991;51.760;19.528;2023-07-13T13:06:35;6.60;;;2.70;;
80637;SDS011;69991;51.760;19.528;2023-07-13T13:09:09;5.60;;;2.80;;
80637;SDS011;69991;51.760;19.528;2023-07-13T13:11:42;5.70;;;3.00;;
80637;SDS011;69991;51.760;19.528;2023-07-13T13:14:11;7.60;;;3.90;;
80637;SDS011;69991;51.760;19.528;2023-07-13T13:16:47;5.30;;;3.50;;
80637;SDS011;69991;51.760;19.528;2023-07-13T13:19:24;6.90;;;4.00;;
80637;SDS011;69991;51.760;19.528;2023-07-13T13:21:55;5.90;;;3.60;;
80637;SDS011;69991;51.760;19.528;2023-07-13T13:24:26;5.70;;;3.50;;
80637;SDS011;69991;51.760;19.528;2023-07-13T13:26:56;7.40;;;3.80;;
80637;SDS011;69991;51.760;19.528;2023-07-13T13:29:26;6.10;;;3.70;;
80637;SDS011;69991;51.760;19.528;2023-07-13T13:31:55;7.00;;;4.40;;
80637;SDS011;69991;51.760;19.528;2023-07-13T13:34:25;5.40;;;3.30;;
80637;SDS011;69991;51.760;19.528;2023-07-13T13:36:55;7.60;;;3.80;;
80637;SDS011;69991;51.760;19.528;2023-07-13T13:39:30;7.50;;;4.30;;
80637;SDS011;69991;51.760;19.528;2023-07-13T13:42:01;6.00;;;3.90;;
80637;SDS011;69991;51.760;19.528;2023-07-13T13:44:30;6.20;;;3.30;;
80637;SDS011;69991;51.760;19.528;2023-07-13T13:46:59;6.40;;;3.60;;
80637;SDS011;69991;51.760;19.528;2023-07-13T13:49:29;6.60;;;3.70;;
80637;SDS011;69991;51.760;19.528;2023-07-13T13:51:59;7.10;;;3.80;;
80637;SDS011;69991;51.760;19.528;2023-07-13T13:54:28;6.20;;;3.60;;
80637;SDS011;69991;51.760;19.528;2023-07-13T13:56:57;4.80;;;3.50;;
80637;SDS011;69991;51.760;19.528;2023-07-13T13:59:28;5.90;;;3.40;;
80637;SDS011;69991;51.760;19.528;2023-07-13T14:01:57;7.00;;;3.60;;
80637;SDS011;69991;51.760;19.528;2023-07-13T14:04:28;5.90;;;3.60;;
80637;SDS011;69991;51.760;19.528;2023-07-13T14:06:57;7.30;;;3.90;;
80637;SDS011;69991;51.760;19.528;2023-07-13T14:09:27;5.60;;;3.50;;
80637;SDS011;69991;51.760;19.528;2023-07-13T14:11:56;5.40;;;3.40;;
80637;SDS011;69991;51.760;19.528;2023-07-13T14:14:33;7.60;;;3.40;;
80637;SDS011;69991;51.760;19.528;2023-07-13T14:17:21;6.30;;;3.60;;
80637;SDS011;69991;51.760;19.528;2023-07-13T14:19:59;5.40;;;3.50;;
80637;SDS011;69991;51.760;19.528;2023-07-13T14:22:41;6.20;;;3.20;;
80637;SDS011;69991;51.760;19.528;2023-07-13T14:25:14;6.20;;;3.90;;
80637;SDS011;69991;51.760;19.528;2023-07-13T14:27:44;6.10;;;3.60;;
80637;SDS011;69991;51.760;19.528;2023-07-13T14:30:15;5.80;;;3.50;;
80637;SDS011;69991;51.760;19.528;2023-07-13T14:32:46;6.30;;;3.90;;
80637;SDS011;69991;51.760;19.528;2023-07-13T14:35:21;5.90;;;3.50;;
80637;SDS011;69991;51.760;19.528;2023-07-13T14:38:02;6.20;;;3.10;;
80637;SDS011;69991;51.760;19.528;2023-07-13T14:40:31;5.70;;;3.30;;
80637;SDS011;69991;51.760;19.528;2023-07-13T14:43:11;6.10;;;2.90;;
80637;SDS011;69991;51.760;19.528;2023-07-13T14:45:47;5.70;;;3.50;;
80637;SDS011;69991;51.760;19.528;2023-07-13T14:48:20;5.90;;;3.40;;
80637;SDS011;69991;51.760;19.528;2023-07-13T14:50:55;5.10;;;3.10;;
80637;SDS011;69991;51.760;19.528;2023-07-13T14:53:26;4.80;;;2.90;;
80637;SDS011;69991;51.760;19.528;2023-07-13T14:56:12;5.50;;;3.20;;
80637;SDS011;69991;51.760;19.528;2023-07-13T14:58:43;4.60;;;2.90;;
80637;SDS011;69991;51.760;19.528;2023-07-13T15:01:19;6.90;;;3.30;;
80637;SDS011;69991;51.760;19.528;2023-07-13T15:08:32;4.70;;;3.30;;
80637;SDS011;69991;51.760;19.528;2023-07-13T15:12:16;5.60;;;3.50;;
80637;SDS011;69991;51.760;19.528;2023-07-13T15:15:28;6.50;;;3.30;;
80637;SDS011;69991;51.760;19.528;2023-07-13T15:18:12;34.70;;;8.90;;
80637;SDS011;69991;51.760;19.528;2023-07-13T15:21:42;8.10;;;3.80;;
80637;SDS011;69991;51.760;19.528;2023-07-13T15:25:01;8.90;;;4.10;;
80637;SDS011;69991;51.760;19.528;2023-07-13T15:31:25;12.50;;;4.50;;
80637;SDS011;69991;51.760;19.528;2023-07-13T15:34:16;23.20;;;6.50;;
80637;SDS011;69991;51.760;19.528;2023-07-13T15:36:48;12.10;;;4.50;;
80637;SDS011;69991;51.760;19.528;2023-07-13T15:39:18;18.60;;;5.50;;
80637;SDS011;69991;51.760;19.528;2023-07-13T15:42:15;7.70;;;3.50;;
80637;SDS011;69991;51.760;19.528;2023-07-13T15:44:55;11.10;;;4.40;;
80637;SDS011;69991;51.760;19.528;2023-07-13T15:48:28;8.80;;;3.10;;
80637;SDS011;69991;51.760;19.528;2023-07-13T15:51:00;7.80;;;3.70;;
80637;SDS011;69991;51.760;19.528;2023-07-13T15:53:30;8.40;;;3.10;;
80637;SDS011;69991;51.760;19.528;2023-07-13T15:56:03;5.60;;;3.40;;
80637;SDS011;69991;51.760;19.528;2023-07-13T15:58:55;8.70;;;3.70;;
80637;SDS011;69991;51.760;19.528;2023-07-13T16:01:28;7.10;;;3.30;;
80637;SDS011;69991;51.760;19.528;2023-07-13T16:04:41;5.70;;;2.90;;
80637;SDS011;69991;51.760;19.528;2023-07-13T16:07:10;5.00;;;2.60;;
80637;SDS011;69991;51.760;19.528;2023-07-13T16:09:40;5.40;;;3.10;;
80637;SDS011;69991;51.760;19.528;2023-07-13T16:12:10;5.40;;;2.80;;
80637;SDS011;69991;51.760;19.528;2023-07-13T16:14:42;5.30;;;2.80;;
80637;SDS011;69991;51.760;19.528;2023-07-13T16:17:12;4.60;;;2.90;;
80637;SDS011;69991;51.760;19.528;2023-07-13T16:19:42;5.40;;;3.40;;